sensor_id;sensor_type;location;lat;lon;timestamp;temperature;humidity
39899;DHT22;25571;47.876;10.642;2022-07-09T00:01:20;12.70;97.00
39899;DHT22;25571;47.876;10.642;2022-07-09T00:03:45;12.70;95.90
39899;DHT22;25571;47.876;10.642;2022-07-09T00:06:11;12.90;95.80
39899;DHT22;25571;47.876;10.642;2022-07-09T00:08:36;12.80;97.10
39899;DHT22;25571;47.876;10.642;2022-07-09T00:11:02;12.80;96.90
39899;DHT22;25571;47.876;10.642;2022-07-09T00:13:27;12.90;96.40
39899;DHT22;25571;47.876;10.642;2022-07-09T00:15:53;13.00;95.50
39899;DHT22;25571;47.876;10.642;2022-07-09T00:18:18;12.90;95.30
39899;DHT22;25571;47.876;10.642;2022-07-09T00:20:44;12.70;96.50
39899;DHT22;25571;47.876;10.642;2022-07-09T00:23:09;12.60;97.20
39899;DHT22;25571;47.876;10.642;2022-07-09T00:25:35;12.30;98.20
39899;DHT22;25571;47.876;10.642;2022-07-09T00:28:00;12.20;98.90
39899;DHT22;25571;47.876;10.642;2022-07-09T00:30:26;12.00;99.90
39899;DHT22;25571;47.876;10.642;2022-07-09T00:32:51;12.00;99.90
39899;DHT22;25571;47.876;10.642;2022-07-09T00:35:17;11.90;99.90
39899;DHT22;25571;47.876;10.642;2022-07-09T00:37:42;11.80;99.90
39899;DHT22;25571;47.876;10.642;2022-07-09T00:40:08;11.70;99.90
39899;DHT22;25571;47.876;10.642;2022-07-09T00:42:34;11.60;99.90
39899;DHT22;25571;47.876;10.642;2022-07-09T00:44:59;11.60;99.90
39899;DHT22;25571;47.876;10.642;2022-07-09T00:47:24;11.50;99.90
39899;DHT22;25571;47.876;10.642;2022-07-09T00:49:50;11.60;99.90
39899;DHT22;25571;47.876;10.642;2022-07-09T00:52:16;11.60;99.90
39899;DHT22;25571;47.876;10.642;2022-07-09T00:54:42;11.60;99.90
39899;DHT22;25571;47.876;10.642;2022-07-09T00:57:09;11.70;99.90
39899;DHT22;25571;47.876;10.642;2022-07-09T00:59:35;11.80;99.90
39899;DHT22;25571;47.876;10.642;2022-07-09T01:02:01;11.90;99.90
39899;DHT22;25571;47.876;10.642;2022-07-09T01:04:27;11.60;99.90
39899;DHT22;25571;47.876;10.642;2022-07-09T01:06:52;11.50;99.90
39899;DHT22;25571;47.876;10.642;2022-07-09T01:09:18;11.60;99.90
39899;DHT22;25571;47.876;10.642;2022-07-09T01:11:43;11.60;99.90
39899;DHT22;25571;47.876;10.642;2022-07-09T01:14:09;11.70;99.90
39899;DHT22;25571;47.876;10.642;2022-07-09T01:16:35;11.80;99.90
39899;DHT22;25571;47.876;10.642;2022-07-09T01:19:00;11.90;99.90
39899;DHT22;25571;47.876;10.642;2022-07-09T01:21:26;11.80;99.90
39899;DHT22;25571;47.876;10.642;2022-07-09T01:23:51;11.80;99.90
39899;DHT22;25571;47.876;10.642;2022-07-09T01:26:17;11.90;99.90
39899;DHT22;25571;47.876;10.642;2022-07-09T01:28:46;11.80;99.90
39899;DHT22;25571;47.876;10.642;2022-07-09T01:31:12;11.60;99.90
39899;DHT22;25571;47.876;10.642;2022-07-09T01:33:38;11.60;99.90
39899;DHT22;25571;47.876;10.642;2022-07-09T01:36:05;11.70;99.90
39899;DHT22;25571;47.876;10.642;2022-07-09T01:38:30;11.80;99.90
39899;DHT22;25571;47.876;10.642;2022-07-09T01:40:56;11.80;99.90
39899;DHT22;25571;47.876;10.642;2022-07-09T01:43:22;11.90;99.90
39899;DHT22;25571;47.876;10.642;2022-07-09T01:45:47;11.80;99.90
39899;DHT22;25571;47.876;10.642;2022-07-09T01:48:13;11.90;99.90
39899;DHT22;25571;47.876;10.642;2022-07-09T01:50:39;11.90;99.90
39899;DHT22;25571;47.876;10.642;2022-07-09T01:53:04;11.80;99.90
39899;DHT22;25571;47.876;10.642;2022-07-09T01:55:30;11.90;99.90
39899;DHT22;25571;47.876;10.642;2022-07-09T01:57:55;11.80;99.90
39899;DHT22;25571;47.876;10.642;2022-07-09T02:00:21;11.90;99.90
39899;DHT22;25571;47.876;10.642;2022-07-09T02:02:46;11.80;99.90
39899;DHT22;25571;47.876;10.642;2022-07-09T02:05:12;11.80;99.90
39899;DHT22;25571;47.876;10.642;2022-07-09T02:07:38;11.80;99.90
39899;DHT22;25571;47.876;10.642;2022-07-09T02:10:04;11.80;99.90
39899;DHT22;25571;47.876;10.642;2022-07-09T02:12:29;11.80;99.90
39899;DHT22;25571;47.876;10.642;2022-07-09T02:14:55;11.80;99.90
39899;DHT22;25571;47.876;10.642;2022-07-09T02:17:20;11.90;99.90
39899;DHT22;25571;47.876;10.642;2022-07-09T02:19:46;11.80;99.90
39899;DHT22;25571;47.876;10.642;2022-07-09T02:22:11;11.80;99.90
39899;DHT22;25571;47.876;10.642;2022-07-09T02:24:39;11.90;99.90
39899;DHT22;25571;47.876;10.642;2022-07-09T02:27:05;12.00;99.90
39899;DHT22;25571;47.876;10.642;2022-07-09T02:29:30;12.10;99.90
39899;DHT22;25571;47.876;10.642;2022-07-09T02:31:56;12.10;99.90
39899;DHT22;25571;47.876;10.642;2022-07-09T02:34:23;12.10;99.90
39899;DHT22;25571;47.876;10.642;2022-07-09T02:36:48;12.10;99.90
39899;DHT22;25571;47.876;10.642;2022-07-09T02:39:14;12.10;99.90
39899;DHT22;25571;47.876;10.642;2022-07-09T02:41:39;12.20;99.90
39899;DHT22;25571;47.876;10.642;2022-07-09T02:44:05;12.20;99.90
39899;DHT22;25571;47.876;10.642;2022-07-09T02:46:30;12.10;99.90
39899;DHT22;25571;47.876;10.642;2022-07-09T02:48:56;12.10;99.90
39899;DHT22;25571;47.876;10.642;2022-07-09T02:51:21;12.20;99.90
39899;DHT22;25571;47.876;10.642;2022-07-09T02:53:46;12.20;99.90
39899;DHT22;25571;47.876;10.642;2022-07-09T02:56:12;12.30;99.90
39899;DHT22;25571;47.876;10.642;2022-07-09T02:58:37;12.30;99.90
39899;DHT22;25571;47.876;10.642;2022-07-09T03:01:03;12.30;99.90
39899;DHT22;25571;47.876;10.642;2022-07-09T03:03:31;12.20;99.90
39899;DHT22;25571;47.876;10.642;2022-07-09T03:05:56;12.20;99.90
39899;DHT22;25571;47.876;10.642;2022-07-09T03:08:22;12.10;99.90
39899;DHT22;25571;47.876;10.642;2022-07-09T03:10:48;12.20;99.90
39899;DHT22;25571;47.876;10.642;2022-07-09T03:13:14;12.20;99.90
39899;DHT22;25571;47.876;10.642;2022-07-09T03:15:40;12.20;99.70
39899;DHT22;25571;47.876;10.642;2022-07-09T03:18:05;12.10;99.80
39899;DHT22;25571;47.876;10.642;2022-07-09T03:20:34;12.20;99.50
39899;DHT22;25571;47.876;10.642;2022-07-09T03:23:00;12.20;99.60
39899;DHT22;25571;47.876;10.642;2022-07-09T03:25:26;12.20;99.90
39899;DHT22;25571;47.876;10.642;2022-07-09T03:27:52;12.20;99.90
39899;DHT22;25571;47.876;10.642;2022-07-09T03:30:17;12.30;99.90
39899;DHT22;25571;47.876;10.642;2022-07-09T03:32:44;12.30;99.90
39899;DHT22;25571;47.876;10.642;2022-07-09T03:35:09;12.30;99.70
39899;DHT22;25571;47.876;10.642;2022-07-09T03:37:35;12.20;99.90
39899;DHT22;25571;47.876;10.642;2022-07-09T03:40:01;12.10;99.90
39899;DHT22;25571;47.876;10.642;2022-07-09T03:42:27;12.10;99.30
39899;DHT22;25571;47.876;10.642;2022-07-09T03:44:53;12.20;99.50
39899;DHT22;25571;47.876;10.642;2022-07-09T03:47:18;12.20;99.60
39899;DHT22;25571;47.876;10.642;2022-07-09T03:49:44;12.10;99.90
39899;DHT22;25571;47.876;10.642;2022-07-09T03:52:09;12.20;99.70
39899;DHT22;25571;47.876;10.642;2022-07-09T03:54:34;12.10;99.30
39899;DHT22;25571;47.876;10.642;2022-07-09T03:57:00;12.10;99.10
39899;DHT22;25571;47.876;10.642;2022-07-09T03:59:25;12.10;99.20
39899;DHT22;25571;47.876;10.642;2022-07-09T04:01:51;12.10;99.40
39899;DHT22;25571;47.876;10.642;2022-07-09T04:04:16;12.10;99.90
39899;DHT22;25571;47.876;10.642;2022-07-09T04:06:42;12.00;99.90
39899;DHT22;25571;47.876;10.642;2022-07-09T04:09:07;11.80;99.90
39899;DHT22;25571;47.876;10.642;2022-07-09T04:11:33;11.60;99.90
39899;DHT22;25571;47.876;10.642;2022-07-09T04:13:59;11.30;99.90
39899;DHT22;25571;47.876;10.642;2022-07-09T04:16:25;11.40;99.90
39899;DHT22;25571;47.876;10.642;2022-07-09T04:18:50;11.50;99.90
39899;DHT22;25571;47.876;10.642;2022-07-09T04:21:16;11.50;99.90
39899;DHT22;25571;47.876;10.642;2022-07-09T04:23:42;11.70;99.90
39899;DHT22;25571;47.876;10.642;2022-07-09T04:26:07;11.70;99.90
39899;DHT22;25571;47.876;10.642;2022-07-09T04:28:34;11.70;99.90
39899;DHT22;25571;47.876;10.642;2022-07-09T04:31:00;11.60;99.90
39899;DHT22;25571;47.876;10.642;2022-07-09T04:33:26;11.70;99.90
39899;DHT22;25571;47.876;10.642;2022-07-09T04:35:52;11.70;99.90
39899;DHT22;25571;47.876;10.642;2022-07-09T04:38:17;11.70;99.90
39899;DHT22;25571;47.876;10.642;2022-07-09T04:40:43;11.80;99.90
39899;DHT22;25571;47.876;10.642;2022-07-09T04:43:08;11.80;99.90
39899;DHT22;25571;47.876;10.642;2022-07-09T04:45:34;11.80;99.90
39899;DHT22;25571;47.876;10.642;2022-07-09T04:47:59;11.90;99.90
39899;DHT22;25571;47.876;10.642;2022-07-09T04:50:25;11.80;99.90
39899;DHT22;25571;47.876;10.642;2022-07-09T04:52:51;11.80;99.90
39899;DHT22;25571;47.876;10.642;2022-07-09T04:55:17;11.80;99.90
39899;DHT22;25571;47.876;10.642;2022-07-09T04:57:43;11.80;99.90
39899;DHT22;25571;47.876;10.642;2022-07-09T05:00:08;12.00;99.90
39899;DHT22;25571;47.876;10.642;2022-07-09T05:02:34;12.00;99.90
39899;DHT22;25571;47.876;10.642;2022-07-09T05:05:00;12.10;99.90
39899;DHT22;25571;47.876;10.642;2022-07-09T05:07:25;12.30;99.90
39899;DHT22;25571;47.876;10.642;2022-07-09T05:09:51;12.40;99.90
39899;DHT22;25571;47.876;10.642;2022-07-09T05:12:16;12.80;99.90
39899;DHT22;25571;47.876;10.642;2022-07-09T05:14:41;13.20;99.90
39899;DHT22;25571;47.876;10.642;2022-07-09T05:17:07;13.20;99.90
39899;DHT22;25571;47.876;10.642;2022-07-09T05:19:32;13.30;99.90
39899;DHT22;25571;47.876;10.642;2022-07-09T05:21:58;13.30;99.90
39899;DHT22;25571;47.876;10.642;2022-07-09T05:24:23;13.30;99.90
39899;DHT22;25571;47.876;10.642;2022-07-09T05:26:49;13.20;99.90
39899;DHT22;25571;47.876;10.642;2022-07-09T05:29:15;13.40;99.90
39899;DHT22;25571;47.876;10.642;2022-07-09T05:31:40;13.40;99.90
39899;DHT22;25571;47.876;10.642;2022-07-09T05:34:06;13.40;99.90
39899;DHT22;25571;47.876;10.642;2022-07-09T05:36:33;13.60;99.90
39899;DHT22;25571;47.876;10.642;2022-07-09T05:38:58;13.70;99.90
39899;DHT22;25571;47.876;10.642;2022-07-09T05:41:25;13.60;99.90
39899;DHT22;25571;47.876;10.642;2022-07-09T05:43:51;13.60;99.90
39899;DHT22;25571;47.876;10.642;2022-07-09T05:46:17;13.90;99.90
39899;DHT22;25571;47.876;10.642;2022-07-09T05:48:42;13.90;99.90
39899;DHT22;25571;47.876;10.642;2022-07-09T05:51:08;13.90;99.90
39899;DHT22;25571;47.876;10.642;2022-07-09T05:53:34;14.00;99.90
39899;DHT22;25571;47.876;10.642;2022-07-09T05:55:59;13.80;99.90
39899;DHT22;25571;47.876;10.642;2022-07-09T05:58:25;13.70;99.90
39899;DHT22;25571;47.876;10.642;2022-07-09T06:00:50;13.80;99.90
39899;DHT22;25571;47.876;10.642;2022-07-09T06:03:16;13.80;99.90
39899;DHT22;25571;47.876;10.642;2022-07-09T06:05:41;13.90;99.90
39899;DHT22;25571;47.876;10.642;2022-07-09T06:08:07;14.10;99.90
39899;DHT22;25571;47.876;10.642;2022-07-09T06:10:34;14.20;99.90
39899;DHT22;25571;47.876;10.642;2022-07-09T06:13:00;14.30;99.80
39899;DHT22;25571;47.876;10.642;2022-07-09T06:15:25;14.50;99.90
39899;DHT22;25571;47.876;10.642;2022-07-09T06:17:51;14.70;98.80
39899;DHT22;25571;47.876;10.642;2022-07-09T06:20:16;14.90;99.00
39899;DHT22;25571;47.876;10.642;2022-07-09T06:22:42;14.90;97.70
39899;DHT22;25571;47.876;10.642;2022-07-09T06:25:07;15.10;97.90
39899;DHT22;25571;47.876;10.642;2022-07-09T06:27:34;15.20;97.60
39899;DHT22;25571;47.876;10.642;2022-07-09T06:30:00;15.40;97.50
39899;DHT22;25571;47.876;10.642;2022-07-09T06:32:25;15.50;96.50
39899;DHT22;25571;47.876;10.642;2022-07-09T06:34:51;15.50;96.10
39899;DHT22;25571;47.876;10.642;2022-07-09T06:37:16;15.40;96.60
39899;DHT22;25571;47.876;10.642;2022-07-09T06:39:42;15.60;96.90
39899;DHT22;25571;47.876;10.642;2022-07-09T06:42:10;15.80;97.20
39899;DHT22;25571;47.876;10.642;2022-07-09T06:44:36;16.00;96.00
39899;DHT22;25571;47.876;10.642;2022-07-09T06:47:02;16.00;97.20
39899;DHT22;25571;47.876;10.642;2022-07-09T06:49:28;16.10;96.10
39899;DHT22;25571;47.876;10.642;2022-07-09T06:51:54;16.20;95.50
39899;DHT22;25571;47.876;10.642;2022-07-09T06:54:19;16.40;95.50
39899;DHT22;25571;47.876;10.642;2022-07-09T06:56:45;16.30;94.90
39899;DHT22;25571;47.876;10.642;2022-07-09T06:59:10;16.50;95.60
39899;DHT22;25571;47.876;10.642;2022-07-09T07:01:35;16.60;95.30
39899;DHT22;25571;47.876;10.642;2022-07-09T07:04:01;16.80;94.30
39899;DHT22;25571;47.876;10.642;2022-07-09T07:06:26;16.90;93.90
39899;DHT22;25571;47.876;10.642;2022-07-09T07:08:52;17.00;93.60
39899;DHT22;25571;47.876;10.642;2022-07-09T07:11:18;17.00;93.70
39899;DHT22;25571;47.876;10.642;2022-07-09T07:13:43;17.20;93.70
39899;DHT22;25571;47.876;10.642;2022-07-09T07:16:09;17.20;92.70
39899;DHT22;25571;47.876;10.642;2022-07-09T07:18:35;17.40;92.00
39899;DHT22;25571;47.876;10.642;2022-07-09T07:21:00;17.50;92.40
39899;DHT22;25571;47.876;10.642;2022-07-09T07:23:26;17.20;89.80
39899;DHT22;25571;47.876;10.642;2022-07-09T07:25:51;17.50;89.20
39899;DHT22;25571;47.876;10.642;2022-07-09T07:28:16;17.60;86.40
39899;DHT22;25571;47.876;10.642;2022-07-09T07:30:42;17.30;86.00
39899;DHT22;25571;47.876;10.642;2022-07-09T07:33:07;17.50;87.20
39899;DHT22;25571;47.876;10.642;2022-07-09T07:35:33;17.70;88.60
39899;DHT22;25571;47.876;10.642;2022-07-09T07:37:58;17.80;88.30
39899;DHT22;25571;47.876;10.642;2022-07-09T07:40:27;18.10;87.20
39899;DHT22;25571;47.876;10.642;2022-07-09T07:42:52;18.20;85.50
39899;DHT22;25571;47.876;10.642;2022-07-09T07:45:18;18.10;84.20
39899;DHT22;25571;47.876;10.642;2022-07-09T07:47:43;18.30;82.80
39899;DHT22;25571;47.876;10.642;2022-07-09T07:50:09;18.30;84.40
39899;DHT22;25571;47.876;10.642;2022-07-09T07:52:34;18.30;78.80
39899;DHT22;25571;47.876;10.642;2022-07-09T07:55:00;18.30;78.00
39899;DHT22;25571;47.876;10.642;2022-07-09T07:57:25;18.50;81.50
39899;DHT22;25571;47.876;10.642;2022-07-09T07:59:51;18.60;74.70
39899;DHT22;25571;47.876;10.642;2022-07-09T08:02:16;18.50;74.60
39899;DHT22;25571;47.876;10.642;2022-07-09T08:04:42;18.60;74.10
39899;DHT22;25571;47.876;10.642;2022-07-09T08:07:07;18.70;74.50
39899;DHT22;25571;47.876;10.642;2022-07-09T08:09:33;18.70;72.40
39899;DHT22;25571;47.876;10.642;2022-07-09T08:11:59;19.00;71.40
39899;DHT22;25571;47.876;10.642;2022-07-09T08:14:25;19.10;73.50
39899;DHT22;25571;47.876;10.642;2022-07-09T08:16:50;19.20;74.40
39899;DHT22;25571;47.876;10.642;2022-07-09T08:19:16;19.20;73.90
39899;DHT22;25571;47.876;10.642;2022-07-09T08:21:41;19.30;74.00
39899;DHT22;25571;47.876;10.642;2022-07-09T08:24:07;19.50;69.20
39899;DHT22;25571;47.876;10.642;2022-07-09T08:26:32;19.40;70.10
39899;DHT22;25571;47.876;10.642;2022-07-09T08:28:58;19.50;74.50
39899;DHT22;25571;47.876;10.642;2022-07-09T08:31:24;19.60;70.10
39899;DHT22;25571;47.876;10.642;2022-07-09T08:33:49;19.50;71.20
39899;DHT22;25571;47.876;10.642;2022-07-09T08:36:16;19.50;71.20
39899;DHT22;25571;47.876;10.642;2022-07-09T08:38:41;19.60;71.60
39899;DHT22;25571;47.876;10.642;2022-07-09T08:41:07;19.50;70.30
39899;DHT22;25571;47.876;10.642;2022-07-09T08:43:33;19.40;71.70
39899;DHT22;25571;47.876;10.642;2022-07-09T08:45:59;19.30;69.80
39899;DHT22;25571;47.876;10.642;2022-07-09T08:48:25;19.30;72.00
39899;DHT22;25571;47.876;10.642;2022-07-09T08:50:51;19.70;73.60
39899;DHT22;25571;47.876;10.642;2022-07-09T08:53:17;19.70;69.80
39899;DHT22;25571;47.876;10.642;2022-07-09T08:55:43;19.50;68.80
39899;DHT22;25571;47.876;10.642;2022-07-09T08:58:11;19.60;69.60
39899;DHT22;25571;47.876;10.642;2022-07-09T09:00:37;19.50;69.50
39899;DHT22;25571;47.876;10.642;2022-07-09T09:03:02;19.80;69.70
39899;DHT22;25571;47.876;10.642;2022-07-09T09:05:28;20.10;71.60
39899;DHT22;25571;47.876;10.642;2022-07-09T09:07:53;20.20;68.60
39899;DHT22;25571;47.876;10.642;2022-07-09T09:10:26;20.00;67.50
39899;DHT22;25571;47.876;10.642;2022-07-09T09:12:55;19.90;67.80
39899;DHT22;25571;47.876;10.642;2022-07-09T09:15:21;20.20;67.40
39899;DHT22;25571;47.876;10.642;2022-07-09T09:17:46;20.30;67.10
39899;DHT22;25571;47.876;10.642;2022-07-09T09:20:15;20.40;66.00
39899;DHT22;25571;47.876;10.642;2022-07-09T09:22:44;20.60;66.20
39899;DHT22;25571;47.876;10.642;2022-07-09T09:25:20;20.90;61.90
39899;DHT22;25571;47.876;10.642;2022-07-09T09:27:52;20.70;63.90
39899;DHT22;25571;47.876;10.642;2022-07-09T09:30:17;20.90;65.60
39899;DHT22;25571;47.876;10.642;2022-07-09T09:32:43;21.10;63.80
39899;DHT22;25571;47.876;10.642;2022-07-09T09:35:08;21.40;65.40
39899;DHT22;25571;47.876;10.642;2022-07-09T09:37:34;21.50;61.30
39899;DHT22;25571;47.876;10.642;2022-07-09T09:40:07;21.60;63.20
39899;DHT22;25571;47.876;10.642;2022-07-09T09:42:33;21.70;60.40
39899;DHT22;25571;47.876;10.642;2022-07-09T09:45:00;21.60;63.30
39899;DHT22;25571;47.876;10.642;2022-07-09T09:47:26;21.70;62.00
39899;DHT22;25571;47.876;10.642;2022-07-09T09:49:52;21.60;59.40
39899;DHT22;25571;47.876;10.642;2022-07-09T09:52:19;21.60;59.30
39899;DHT22;25571;47.876;10.642;2022-07-09T09:54:45;21.40;61.00
39899;DHT22;25571;47.876;10.642;2022-07-09T09:57:12;21.60;60.80
39899;DHT22;25571;47.876;10.642;2022-07-09T09:59:45;21.50;60.60
39899;DHT22;25571;47.876;10.642;2022-07-09T10:02:11;21.50;60.20
39899;DHT22;25571;47.876;10.642;2022-07-09T10:04:41;21.30;60.70
39899;DHT22;25571;47.876;10.642;2022-07-09T10:07:07;21.10;60.60
39899;DHT22;25571;47.876;10.642;2022-07-09T10:09:33;21.10;63.40
39899;DHT22;25571;47.876;10.642;2022-07-09T10:11:58;21.10;60.20
39899;DHT22;25571;47.876;10.642;2022-07-09T10:16:49;20.70;60.50
39899;DHT22;25571;47.876;10.642;2022-07-09T10:19:25;20.80;61.50
39899;DHT22;25571;47.876;10.642;2022-07-09T10:21:54;20.80;60.70
39899;DHT22;25571;47.876;10.642;2022-07-09T10:24:24;20.90;60.50
39899;DHT22;25571;47.876;10.642;2022-07-09T10:26:49;20.90;62.00
39899;DHT22;25571;47.876;10.642;2022-07-09T10:29:19;21.00;63.20
39899;DHT22;25571;47.876;10.642;2022-07-09T10:31:45;21.10;62.50
39899;DHT22;25571;47.876;10.642;2022-07-09T10:34:14;21.30;62.40
39899;DHT22;25571;47.876;10.642;2022-07-09T10:36:55;21.40;60.50
39899;DHT22;25571;47.876;10.642;2022-07-09T10:39:21;21.40;61.20
39899;DHT22;25571;47.876;10.642;2022-07-09T10:41:46;21.70;62.90
39899;DHT22;25571;47.876;10.642;2022-07-09T10:44:12;21.50;58.40
39899;DHT22;25571;47.876;10.642;2022-07-09T10:46:37;21.10;60.10
39899;DHT22;25571;47.876;10.642;2022-07-09T10:49:03;21.30;59.70
39899;DHT22;25571;47.876;10.642;2022-07-09T10:51:28;21.20;60.20
39899;DHT22;25571;47.876;10.642;2022-07-09T10:53:54;21.30;59.60
39899;DHT22;25571;47.876;10.642;2022-07-09T10:56:20;21.20;59.30
39899;DHT22;25571;47.876;10.642;2022-07-09T10:58:46;21.10;59.00
39899;DHT22;25571;47.876;10.642;2022-07-09T11:01:12;21.20;59.10
39899;DHT22;25571;47.876;10.642;2022-07-09T11:03:46;21.30;58.00
39899;DHT22;25571;47.876;10.642;2022-07-09T11:06:13;21.20;58.60
39899;DHT22;25571;47.876;10.642;2022-07-09T11:08:38;21.20;57.60
39899;DHT22;25571;47.876;10.642;2022-07-09T11:11:04;21.20;57.30
39899;DHT22;25571;47.876;10.642;2022-07-09T11:13:29;21.30;59.30
39899;DHT22;25571;47.876;10.642;2022-07-09T11:16:01;21.50;59.60
39899;DHT22;25571;47.876;10.642;2022-07-09T11:18:27;21.50;57.60
39899;DHT22;25571;47.876;10.642;2022-07-09T11:20:53;21.60;58.00
39899;DHT22;25571;47.876;10.642;2022-07-09T11:23:18;21.70;55.10
39899;DHT22;25571;47.876;10.642;2022-07-09T11:25:44;21.50;55.00
39899;DHT22;25571;47.876;10.642;2022-07-09T11:28:18;21.50;57.40
39899;DHT22;25571;47.876;10.642;2022-07-09T11:30:43;21.50;55.60
39899;DHT22;25571;47.876;10.642;2022-07-09T11:33:12;21.40;55.40
39899;DHT22;25571;47.876;10.642;2022-07-09T11:35:37;21.60;55.20
39899;DHT22;25571;47.876;10.642;2022-07-09T11:38:03;21.70;56.80
39899;DHT22;25571;47.876;10.642;2022-07-09T11:40:30;21.60;55.50
39899;DHT22;25571;47.876;10.642;2022-07-09T11:42:55;21.70;56.60
39899;DHT22;25571;47.876;10.642;2022-07-09T11:45:27;21.60;55.10
39899;DHT22;25571;47.876;10.642;2022-07-09T11:48:03;21.60;55.10
39899;DHT22;25571;47.876;10.642;2022-07-09T11:50:29;21.60;55.00
39899;DHT22;25571;47.876;10.642;2022-07-09T11:52:55;21.70;55.60
39899;DHT22;25571;47.876;10.642;2022-07-09T11:55:27;21.80;55.50
39899;DHT22;25571;47.876;10.642;2022-07-09T11:57:54;21.90;56.70
39899;DHT22;25571;47.876;10.642;2022-07-09T12:00:21;22.00;56.80
39899;DHT22;25571;47.876;10.642;2022-07-09T12:02:47;21.90;57.10
39899;DHT22;25571;47.876;10.642;2022-07-09T12:05:12;21.80;54.90
39899;DHT22;25571;47.876;10.642;2022-07-09T12:07:39;21.70;55.20
39899;DHT22;25571;47.876;10.642;2022-07-09T12:10:05;21.60;55.80
39899;DHT22;25571;47.876;10.642;2022-07-09T12:12:32;21.60;55.80
39899;DHT22;25571;47.876;10.642;2022-07-09T12:14:58;21.60;54.00
39899;DHT22;25571;47.876;10.642;2022-07-09T12:17:24;21.60;55.10
39899;DHT22;25571;47.876;10.642;2022-07-09T12:19:50;21.70;54.70
39899;DHT22;25571;47.876;10.642;2022-07-09T12:22:15;21.60;53.90
39899;DHT22;25571;47.876;10.642;2022-07-09T12:24:41;21.60;56.70
39899;DHT22;25571;47.876;10.642;2022-07-09T12:27:08;21.90;56.40
39899;DHT22;25571;47.876;10.642;2022-07-09T12:29:33;22.10;55.90
39899;DHT22;25571;47.876;10.642;2022-07-09T12:31:59;22.20;56.70
39899;DHT22;25571;47.876;10.642;2022-07-09T12:34:24;22.30;55.10
39899;DHT22;25571;47.876;10.642;2022-07-09T12:36:50;22.20;55.20
39899;DHT22;25571;47.876;10.642;2022-07-09T12:39:15;22.30;56.40
39899;DHT22;25571;47.876;10.642;2022-07-09T12:41:41;22.30;54.10
39899;DHT22;25571;47.876;10.642;2022-07-09T12:44:06;22.20;54.10
39899;DHT22;25571;47.876;10.642;2022-07-09T12:46:32;22.30;57.00
39899;DHT22;25571;47.876;10.642;2022-07-09T12:48:58;22.40;57.00
39899;DHT22;25571;47.876;10.642;2022-07-09T12:51:23;22.50;53.30
39899;DHT22;25571;47.876;10.642;2022-07-09T12:53:49;22.40;54.80
39899;DHT22;25571;47.876;10.642;2022-07-09T12:56:14;22.50;55.70
39899;DHT22;25571;47.876;10.642;2022-07-09T12:58:40;22.60;55.20
39899;DHT22;25571;47.876;10.642;2022-07-09T13:01:05;22.50;55.00
39899;DHT22;25571;47.876;10.642;2022-07-09T13:03:31;22.40;55.10
39899;DHT22;25571;47.876;10.642;2022-07-09T13:05:56;22.50;55.30
39899;DHT22;25571;47.876;10.642;2022-07-09T13:08:22;22.50;55.20
39899;DHT22;25571;47.876;10.642;2022-07-09T13:10:48;22.30;53.60
39899;DHT22;25571;47.876;10.642;2022-07-09T13:13:13;22.10;53.00
39899;DHT22;25571;47.876;10.642;2022-07-09T13:15:40;22.10;57.10
39899;DHT22;25571;47.876;10.642;2022-07-09T13:18:05;22.30;55.40
39899;DHT22;25571;47.876;10.642;2022-07-09T13:20:32;22.10;54.60
39899;DHT22;25571;47.876;10.642;2022-07-09T13:22:58;22.20;53.80
39899;DHT22;25571;47.876;10.642;2022-07-09T13:25:23;22.00;53.50
39899;DHT22;25571;47.876;10.642;2022-07-09T13:27:49;21.80;56.30
39899;DHT22;25571;47.876;10.642;2022-07-09T13:30:14;21.90;55.00
39899;DHT22;25571;47.876;10.642;2022-07-09T13:32:46;21.80;54.10
39899;DHT22;25571;47.876;10.642;2022-07-09T13:35:11;21.80;58.30
39899;DHT22;25571;47.876;10.642;2022-07-09T13:37:37;21.70;54.80
39899;DHT22;25571;47.876;10.642;2022-07-09T13:40:03;21.70;54.60
39899;DHT22;25571;47.876;10.642;2022-07-09T13:42:28;21.70;58.20
39899;DHT22;25571;47.876;10.642;2022-07-09T13:44:54;21.80;55.70
39899;DHT22;25571;47.876;10.642;2022-07-09T13:47:19;21.80;58.20
39899;DHT22;25571;47.876;10.642;2022-07-09T13:49:45;21.70;57.70
39899;DHT22;25571;47.876;10.642;2022-07-09T13:52:10;21.90;59.00
39899;DHT22;25571;47.876;10.642;2022-07-09T13:54:36;22.00;57.40
39899;DHT22;25571;47.876;10.642;2022-07-09T13:57:01;22.10;57.70
39899;DHT22;25571;47.876;10.642;2022-07-09T13:59:27;22.10;56.00
39899;DHT22;25571;47.876;10.642;2022-07-09T14:01:53;22.10;56.70
39899;DHT22;25571;47.876;10.642;2022-07-09T14:04:18;22.30;56.90
39899;DHT22;25571;47.876;10.642;2022-07-09T14:06:44;22.30;57.80
39899;DHT22;25571;47.876;10.642;2022-07-09T14:09:10;22.30;56.20
39899;DHT22;25571;47.876;10.642;2022-07-09T14:11:35;22.40;55.20
39899;DHT22;25571;47.876;10.642;2022-07-09T14:14:01;22.40;55.80
39899;DHT22;25571;47.876;10.642;2022-07-09T14:16:26;22.40;57.30
39899;DHT22;25571;47.876;10.642;2022-07-09T14:18:52;22.30;56.40
39899;DHT22;25571;47.876;10.642;2022-07-09T14:21:17;22.40;56.30
39899;DHT22;25571;47.876;10.642;2022-07-09T14:23:43;22.40;55.90
39899;DHT22;25571;47.876;10.642;2022-07-09T14:26:14;22.40;56.40
39899;DHT22;25571;47.876;10.642;2022-07-09T14:28:40;22.50;54.90
39899;DHT22;25571;47.876;10.642;2022-07-09T14:31:05;22.50;56.30
39899;DHT22;25571;47.876;10.642;2022-07-09T14:33:31;22.60;58.00
39899;DHT22;25571;47.876;10.642;2022-07-09T14:35:56;22.60;56.90
39899;DHT22;25571;47.876;10.642;2022-07-09T14:38:22;22.60;54.80
39899;DHT22;25571;47.876;10.642;2022-07-09T14:40:47;22.60;55.50
39899;DHT22;25571;47.876;10.642;2022-07-09T14:43:13;22.60;55.00
39899;DHT22;25571;47.876;10.642;2022-07-09T14:45:38;22.40;54.90
39899;DHT22;25571;47.876;10.642;2022-07-09T14:48:04;22.50;55.70
39899;DHT22;25571;47.876;10.642;2022-07-09T14:50:34;22.50;56.00
39899;DHT22;25571;47.876;10.642;2022-07-09T14:53:00;22.60;57.00
39899;DHT22;25571;47.876;10.642;2022-07-09T14:55:29;22.50;56.30
39899;DHT22;25571;47.876;10.642;2022-07-09T14:57:55;22.60;56.20
39899;DHT22;25571;47.876;10.642;2022-07-09T15:00:20;22.70;56.90
39899;DHT22;25571;47.876;10.642;2022-07-09T15:02:46;22.70;56.90
39899;DHT22;25571;47.876;10.642;2022-07-09T15:05:11;22.70;56.80
39899;DHT22;25571;47.876;10.642;2022-07-09T15:07:37;22.70;57.50
39899;DHT22;25571;47.876;10.642;2022-07-09T15:10:03;22.70;56.60